Jesup, GA

8:42 PM EDT on July 10, 2014 (GMT -0400)
Wayne Terrace (KGAJESUP3) Elev 131 ft | 31.61 °N, 81.92 °W | Change Station
Active Advisory: Special Statement

Current weather conditions updated 2 minutes ago

Light Drizzle
Light Drizzle
77.7 °F
Feels Like 80 °F
N
2.0
Wind Variable Wind from North
Gusts 3.0 mph

Tomorrow is forecast to be Cooler than today. Thunderstorms developing in the afternoon.

Today
High -- | Low -- °F
--% Chance of Precip.
Yesterday
High -- | Low -- °F
Precip. -- in
6:30 AM 8:35 PM
Waxing Gibbous, 97% visible
Pressure 30.10 in
Visibility 10.0 miles
Clouds Few 3700 ft
Mostly Cloudy 14000 ft
Heat Index 80 °F
Dew Point 74 °F
Humidity 88%
Rainfall 0.05 in
Snow Depth Not available.
UV 0 out of 12
Pollen 2.50 out of 12
Air Quality Not available.
Flu Activity Sporadic
SPECI KLHW 110015Z AUTO 33001KT 10SM -DZ FEW037 BKN140 23/22 A3010 RMK AO2 DZB0016 PRESRR

More Conditions Fewer Conditions

Pressure 30.10 in
Visibility 10.0 miles
Clouds Few 3700 ft
Mostly Cloudy 14000 ft
Heat Index 80 °F
Dew Point 74 °F
Humidity 88%
Rainfall 0.05 in
Snow Depth Not available.
UV 0 out of 12
Pollen 2.50 out of 12
Air Quality Not available.
Flu Activity Sporadic
SPECI KLHW 110015Z AUTO 33001KT 10SM -DZ FEW037 BKN140 23/22 A3010 RMK AO2 DZB0016 PRESRR

More Conditions Fewer Conditions

10-Day Weather Forecast

Almanac

Astronomy

Jul. 10, 2014 Rise Set
Actual Time 6:30 AM EDT 8:35 PM EDT
Civil Twilight 6:02 AM EDT 9:03 PM EDT
Nautical Twilight 5:28 AM EDT 9:36 PM EDT
Astronomical Twilight 4:52 AM EDT 10:12 PM EDT
Moon 6:50 PM EDT (7/10) 4:36 AM EDT (7/10)
Length of Visible Light 15h 00m
Length of Day
14h 05m
Tomorrow will be 0m 48s shorter.
Waxing Gibbous, 97% of the Moon is Illuminated
Today
Waxing Gibbous
Jul 12
Full
Jul 18
Last Quarter
Jul 26
New
Aug 3
First Quarter

Today's Extremes

State Highs State Lows

Community

WunderPhotos

Upload Photos

1,732,316 photos uploaded!

Nearby

Snow Depth

Station Depth Elevation
No new snow has been reported.

Earthquake Activity

City Distance Mag. Time & Date
No recent earthquake activity has been reported nearby.
Minimum magnitude displayed is 2.5.

Coastal Water Temperatures

Place Temperature
No Stations Reporting

Nearby Weather Stations

Station Location Temp. Heat Index Dew Point Humidity Wind Precip. Elev Updated Type
Wayne Terrace, Jesup, GA 77.7 °F 80 °F 74 °F 88% North  at  2.0 mph 0.13 in / hr 131 ft 8:40 PM EDT Normal
Elim / Davenport Acres - Long County, Ludowici, GA 75.8 °F 76 °F 72 °F 88% East  at  0.0 mph 0.00 in / hr 89 ft 8:42 PM EDT Rapid Fire
Hortense, GA 78.5 °F 82 °F 75 °F 89% SE  at  1.8 mph 0.00 in / hr 56 ft 8:40 PM EDT Normal

Show More Stations Show Fewer Stations